Hmcs Charlottetown — CGAJ — position and weather

sailwx.info

Track history (hours):
 
Tides and Currents Weather Stations Pressure Air Temp Water Temp Dewpoint Dewpoint Depression Visibility Wind Speed Wind Dir Waves Ship Positions

Hmcs Charlottetown

Last reported at 2015-Apr-29 18:32 UTC. Time now 2015-May-05 14:16 UTC.
Position N 44°39' W 063°35'.

; draft 7.5 m.

Type: Military. MMSI: 235830006.

Date/timePositionNaut miles runAvg speedWind from/ knotsBaromVisibWave heightAir tempDewpointWater temp
2015-Apr-29 18:32N 44°39' W 063°35'2 2.4
2015-Apr-29 17:33N 44°37' W 063°33'7 6.9
2015-Apr-29 16:31N 44°33' W 063°25'0 0.0
2015-Apr-29 15:29N 44°33' W 063°25'0 0.3
2015-Apr-29 14:33N 44°33' W 063°25'0 0.3
2015-Apr-29 13:33N 44°33' W 063°25'0 0.3
2015-Apr-29 12:32N 44°33' W 063°25'3 3.1
2015-Apr-29 11:29N 44°29' W 063°25'1 0.6
2015-Apr-29 10:33N 44°29' W 063°26'0 0.5
2015-Apr-29 09:33N 44°29' W 063°25'4 3.3
2015-Apr-29 08:25N 44°29' W 063°20'3 2.8
2015-Apr-29 07:29N 44°29' W 063°16'3 2.8
2015-Apr-29 06:33N 44°31' W 063°19'4 3.9
2015-Apr-29 05:26N 44°32' W 063°14'4 4.4
2015-Apr-29 04:33N 44°31' W 063°19'1 0.5
2015-Apr-29 02:26N 44°31' W 063°20'2 1.0
2015-Apr-29 00:32N 44°30' W 063°18'5 4.7
2015-Apr-28 23:33N 44°30' W 063°24'10 9.9
2015-Apr-28 22:33N 44°38' W 063°33'8 7.7
2015-Apr-28 21:32N 44°31' W 063°28'4 3.6
2015-Apr-28 20:33N 44°32' W 063°23'3 1.9
2015-Apr-28 19:04N 44°32' W 063°19'2 2.9
2015-Apr-28 18:33N 44°32' W 063°21'3 2.8
2015-Apr-28 17:33N 44°32' W 063°25'9 0.4
2015-Apr-27 20:13N 44°24' W 063°28'912.9
2015-Apr-27 19:29N 44°33' W 063°26'0 0.4
2015-Apr-27 18:33N 44°33' W 063°25'0 0.3
2015-Apr-27 17:29N 44°33' W 063°25'0 0.3
2015-Apr-27 16:30N 44°33' W 063°25'0 0.3
2015-Apr-27 15:32N 44°33' W 063°25'0 0.3
2015-Apr-27 14:25N 44°33' W 063°25'8 9.1
2015-Apr-27 13:33N 44°38' W 063°33'2 2.0
2015-Apr-27 12:33N 44°40' W 063°35'0 0.0
2015-Apr-27 11:33N 44°40' W 063°35'0 0.0
2015-Apr-27 10:33N 44°40' W 063°35'  
Track history (hours):
 
Tides and Currents Weather Stations Pressure Air Temp Water Temp Dewpoint Dewpoint Depression Visibility Wind Speed Wind Dir Waves Ship Positions

Hmcs Charlottetown

Last reported at 2015-Apr-29 18:32 UTC. Time now 2015-May-05 14:16 UTC.
Position N 44°39' W 063°35'.

; draft 7.5 m.

Type: Military. MMSI: 235830006.

Date/timePositionNaut miles runAvg speedWind from/ knotsBaromVisibWave heightAir tempDewpointWater temp
2015-Apr-29 18:32N 44°39' W 063°35'2 2.4
2015-Apr-29 17:33N 44°37' W 063°33'7 6.9
2015-Apr-29 16:31N 44°33' W 063°25'0 0.0
2015-Apr-29 15:29N 44°33' W 063°25'0 0.3
2015-Apr-29 14:33N 44°33' W 063°25'0 0.3
2015-Apr-29 13:33N 44°33' W 063°25'0 0.3
2015-Apr-29 12:32N 44°33' W 063°25'3 3.1
2015-Apr-29 11:29N 44°29' W 063°25'1 0.6
2015-Apr-29 10:33N 44°29' W 063°26'0 0.5
2015-Apr-29 09:33N 44°29' W 063°25'4 3.3
2015-Apr-29 08:25N 44°29' W 063°20'3 2.8
2015-Apr-29 07:29N 44°29' W 063°16'3 2.8
2015-Apr-29 06:33N 44°31' W 063°19'4 3.9
2015-Apr-29 05:26N 44°32' W 063°14'4 4.4
2015-Apr-29 04:33N 44°31' W 063°19'1 0.5
2015-Apr-29 02:26N 44°31' W 063°20'2 1.0
2015-Apr-29 00:32N 44°30' W 063°18'5 4.7
2015-Apr-28 23:33N 44°30' W 063°24'10 9.9
2015-Apr-28 22:33N 44°38' W 063°33'8 7.7
2015-Apr-28 21:32N 44°31' W 063°28'4 3.6
2015-Apr-28 20:33N 44°32' W 063°23'3 1.9
2015-Apr-28 19:04N 44°32' W 063°19'2 2.9
2015-Apr-28 18:33N 44°32' W 063°21'3 2.8
2015-Apr-28 17:33N 44°32' W 063°25'9 0.4
2015-Apr-27 20:13N 44°24' W 063°28'912.9
2015-Apr-27 19:29N 44°33' W 063°26'0 0.4
2015-Apr-27 18:33N 44°33' W 063°25'0 0.3
2015-Apr-27 17:29N 44°33' W 063°25'0 0.3
2015-Apr-27 16:30N 44°33' W 063°25'0 0.3
2015-Apr-27 15:32N 44°33' W 063°25'0 0.3
2015-Apr-27 14:25N 44°33' W 063°25'8 9.1
2015-Apr-27 13:33N 44°38' W 063°33'2 2.0
2015-Apr-27 12:33N 44°40' W 063°35'0 0.0
2015-Apr-27 11:33N 44°40' W 063°35'0 0.0
2015-Apr-27 10:33N 44°40' W 063°35'  

Dump ship's entire track history